sensor_id;sensor_type;location;lat;lon;timestamp;pressure;altitude;pressure_sealevel;temperature;humidity
62164;BME280;48149;51.132;7.178;2023-03-03T00:01:50;99150.66;;;9.76;58.90
62164;BME280;48149;51.132;7.178;2023-03-03T00:04:16;99148.63;;;9.78;57.11
62164;BME280;48149;51.132;7.178;2023-03-03T00:06:41;99149.50;;;10.85;56.85
62164;BME280;48149;51.132;7.178;2023-03-03T00:09:08;99144.41;;;10.24;56.84
62164;BME280;48149;51.132;7.178;2023-03-03T00:11:33;99144.41;;;10.31;55.57
62164;BME280;48149;51.132;7.178;2023-03-03T00:13:59;99138.91;;;9.58;58.78
62164;BME280;48149;51.132;7.178;2023-03-03T00:16:30;99142.63;;;9.43;56.44
62164;BME280;48149;51.132;7.178;2023-03-03T00:18:55;99143.25;;;10.73;53.53
62164;BME280;48149;51.132;7.178;2023-03-03T00:21:31;99143.22;;;10.46;54.07
62164;BME280;48149;51.132;7.178;2023-03-03T00:24:02;99149.28;;;10.53;53.74
62164;BME280;48149;51.132;7.178;2023-03-03T00:26:35;99151.31;;;10.51;55.89
62164;BME280;48149;51.132;7.178;2023-03-03T00:29:02;99152.78;;;9.59;55.56
62164;BME280;48149;51.132;7.178;2023-03-03T00:31:44;99151.53;;;9.96;55.74
62164;BME280;48149;51.132;7.178;2023-03-03T00:34:25;99154.13;;;9.89;56.43
62164;BME280;48149;51.132;7.178;2023-03-03T00:36:55;99150.13;;;10.74;53.85
62164;BME280;48149;51.132;7.178;2023-03-03T00:41:48;99159.09;;;10.25;57.23
62164;BME280;48149;51.132;7.178;2023-03-03T00:44:59;99151.97;;;10.06;53.95
62164;BME280;48149;51.132;7.178;2023-03-03T00:47:02;99160.59;;;11.00;52.00
62164;BME280;48149;51.132;7.178;2023-03-03T00:49:37;99159.59;;;10.01;52.48
62164;BME280;48149;51.132;7.178;2023-03-03T00:52:08;99164.31;;;9.78;54.99
62164;BME280;48149;51.132;7.178;2023-03-03T00:54:34;99163.41;;;9.51;55.27
62164;BME280;48149;51.132;7.178;2023-03-03T00:56:59;99165.34;;;10.37;55.95
62164;BME280;48149;51.132;7.178;2023-03-03T00:59:24;99160.97;;;10.51;53.13
62164;BME280;48149;51.132;7.178;2023-03-03T01:01:50;99170.56;;;10.31;54.61
62164;BME280;48149;51.132;7.178;2023-03-03T01:04:15;99174.69;;;10.05;54.16
62164;BME280;48149;51.132;7.178;2023-03-03T01:06:40;99174.78;;;10.25;51.93
62164;BME280;48149;51.132;7.178;2023-03-03T01:09:05;99177.81;;;10.29;53.98
62164;BME280;48149;51.132;7.178;2023-03-03T01:11:31;99181.13;;;11.16;52.62
62164;BME280;48149;51.132;7.178;2023-03-03T01:13:56;99185.19;;;11.25;50.76
62164;BME280;48149;51.132;7.178;2023-03-03T01:16:21;99182.13;;;10.49;54.30
62164;BME280;48149;51.132;7.178;2023-03-03T01:18:46;99183.34;;;10.66;53.53
62164;BME280;48149;51.132;7.178;2023-03-03T01:21:12;99184.53;;;11.36;50.94
62164;BME280;48149;51.132;7.178;2023-03-03T01:23:37;99184.50;;;11.69;49.87
62164;BME280;48149;51.132;7.178;2023-03-03T01:26:03;99186.75;;;11.39;47.92
62164;BME280;48149;51.132;7.178;2023-03-03T01:28:28;99191.63;;;12.13;49.01
62164;BME280;48149;51.132;7.178;2023-03-03T01:30:53;99187.59;;;10.87;51.21
62164;BME280;48149;51.132;7.178;2023-03-03T01:33:19;99189.09;;;11.80;50.27
62164;BME280;48149;51.132;7.178;2023-03-03T01:35:45;99186.16;;;11.31;50.75
62164;BME280;48149;51.132;7.178;2023-03-03T01:38:11;99181.16;;;12.44;48.78
62164;BME280;48149;51.132;7.178;2023-03-03T01:40:36;99187.84;;;11.96;47.17
62164;BME280;48149;51.132;7.178;2023-03-03T01:43:02;99190.47;;;11.96;48.05
62164;BME280;48149;51.132;7.178;2023-03-03T01:45:28;99190.81;;;11.15;51.05
62164;BME280;48149;51.132;7.178;2023-03-03T01:50:24;99193.81;;;12.16;50.06
62164;BME280;48149;51.132;7.178;2023-03-03T01:52:51;99191.94;;;12.29;47.60
62164;BME280;48149;51.132;7.178;2023-03-03T01:55:21;99197.38;;;10.39;54.11
62164;BME280;48149;51.132;7.178;2023-03-03T01:58:48;99217.13;;;11.93;52.30
62164;BME280;48149;51.132;7.178;2023-03-03T02:00:43;99202.31;;;11.28;51.37
62164;BME280;48149;51.132;7.178;2023-03-03T02:03:10;99201.63;;;10.53;52.94
62164;BME280;48149;51.132;7.178;2023-03-03T02:05:35;99203.81;;;10.30;54.19
62164;BME280;48149;51.132;7.178;2023-03-03T02:08:01;99200.78;;;10.27;53.76
62164;BME280;48149;51.132;7.178;2023-03-03T02:10:27;99198.41;;;10.45;54.29
62164;BME280;48149;51.132;7.178;2023-03-03T02:12:54;99196.03;;;11.35;53.22
62164;BME280;48149;51.132;7.178;2023-03-03T02:15:21;99206.00;;;12.04;50.47
62164;BME280;48149;51.132;7.178;2023-03-03T02:17:48;99208.34;;;11.15;51.65
62164;BME280;48149;51.132;7.178;2023-03-03T02:22:46;99194.41;;;10.75;52.24
62164;BME280;48149;51.132;7.178;2023-03-03T02:25:14;99199.00;;;9.99;55.55
62164;BME280;48149;51.132;7.178;2023-03-03T02:27:41;99208.13;;;11.36;52.17
62164;BME280;48149;51.132;7.178;2023-03-03T02:30:07;99210.50;;;11.84;49.83
62164;BME280;48149;51.132;7.178;2023-03-03T02:32:33;99210.78;;;10.90;49.79
62164;BME280;48149;51.132;7.178;2023-03-03T02:34:58;99216.63;;;11.25;49.93
62164;BME280;48149;51.132;7.178;2023-03-03T02:37:23;99224.00;;;11.94;48.17
62164;BME280;48149;51.132;7.178;2023-03-03T02:39:49;99219.44;;;12.58;48.76
62164;BME280;48149;51.132;7.178;2023-03-03T02:42:19;99232.03;;;12.50;47.29
62164;BME280;48149;51.132;7.178;2023-03-03T02:44:46;99229.91;;;11.63;49.02
62164;BME280;48149;51.132;7.178;2023-03-03T02:47:11;99226.16;;;12.10;47.51
62164;BME280;48149;51.132;7.178;2023-03-03T02:49:36;99217.66;;;12.08;49.53
62164;BME280;48149;51.132;7.178;2023-03-03T02:52:03;99223.63;;;11.57;47.28
62164;BME280;48149;51.132;7.178;2023-03-03T02:54:29;99221.47;;;11.21;50.57
62164;BME280;48149;51.132;7.178;2023-03-03T02:56:55;99220.84;;;11.00;52.77
62164;BME280;48149;51.132;7.178;2023-03-03T02:59:21;99223.06;;;11.03;52.12
62164;BME280;48149;51.132;7.178;2023-03-03T03:01:46;99220.44;;;11.29;52.12
62164;BME280;48149;51.132;7.178;2023-03-03T03:04:12;99222.38;;;10.01;52.54
62164;BME280;48149;51.132;7.178;2023-03-03T03:06:38;99215.09;;;10.37;54.78
62164;BME280;48149;51.132;7.178;2023-03-03T03:09:04;99207.13;;;10.91;52.27
62164;BME280;48149;51.132;7.178;2023-03-03T03:11:29;99214.59;;;10.75;52.15
62164;BME280;48149;51.132;7.178;2023-03-03T03:13:54;99205.19;;;10.20;52.66
62164;BME280;48149;51.132;7.178;2023-03-03T03:16:20;99205.69;;;10.49;51.19
62164;BME280;48149;51.132;7.178;2023-03-03T03:18:45;99221.63;;;10.67;53.49
62164;BME280;48149;51.132;7.178;2023-03-03T03:21:11;99233.75;;;11.28;50.61
62164;BME280;48149;51.132;7.178;2023-03-03T03:23:37;99243.88;;;10.37;50.18
62164;BME280;48149;51.132;7.178;2023-03-03T03:26:02;99239.13;;;10.13;53.31
62164;BME280;48149;51.132;7.178;2023-03-03T03:28:28;99239.84;;;9.94;51.76
62164;BME280;48149;51.132;7.178;2023-03-03T03:30:53;99241.63;;;11.21;51.53
62164;BME280;48149;51.132;7.178;2023-03-03T03:33:18;99244.59;;;10.79;48.47
62164;BME280;48149;51.132;7.178;2023-03-03T03:35:43;99249.94;;;12.21;48.31
62164;BME280;48149;51.132;7.178;2023-03-03T03:38:11;99245.94;;;12.88;46.44
62164;BME280;48149;51.132;7.178;2023-03-03T03:40:37;99237.16;;;11.35;47.74
62164;BME280;48149;51.132;7.178;2023-03-03T03:43:02;99235.53;;;10.75;51.22
62164;BME280;48149;51.132;7.178;2023-03-03T03:45:27;99231.47;;;10.65;51.25
62164;BME280;48149;51.132;7.178;2023-03-03T03:47:52;99237.53;;;10.73;53.11
62164;BME280;48149;51.132;7.178;2023-03-03T03:50:17;99244.41;;;11.59;49.39
62164;BME280;48149;51.132;7.178;2023-03-03T03:52:43;99232.13;;;11.07;49.82
62164;BME280;48149;51.132;7.178;2023-03-03T03:55:08;99232.88;;;11.66;50.36
62164;BME280;48149;51.132;7.178;2023-03-03T03:57:34;99227.28;;;11.63;49.13
62164;BME280;48149;51.132;7.178;2023-03-03T03:59:59;99225.59;;;12.39;47.46
62164;BME280;48149;51.132;7.178;2023-03-03T04:02:24;99232.63;;;12.45;44.99
62164;BME280;48149;51.132;7.178;2023-03-03T04:04:49;99229.31;;;11.21;48.42
62164;BME280;48149;51.132;7.178;2023-03-03T04:07:14;99240.00;;;12.30;47.62
62164;BME280;48149;51.132;7.178;2023-03-03T04:09:40;99236.88;;;12.02;46.82
62164;BME280;48149;51.132;7.178;2023-03-03T04:12:05;99235.50;;;12.44;46.21
62164;BME280;48149;51.132;7.178;2023-03-03T04:14:30;99232.53;;;11.56;49.35
62164;BME280;48149;51.132;7.178;2023-03-03T04:16:55;99219.22;;;10.92;49.33
62164;BME280;48149;51.132;7.178;2023-03-03T04:19:21;99224.25;;;11.59;49.37
62164;BME280;48149;51.132;7.178;2023-03-03T04:21:46;99229.91;;;10.91;49.97
62164;BME280;48149;51.132;7.178;2023-03-03T04:24:12;99235.75;;;11.71;48.43
62164;BME280;48149;51.132;7.178;2023-03-03T04:26:37;99250.47;;;11.13;49.27
62164;BME280;48149;51.132;7.178;2023-03-03T04:29:02;99252.91;;;11.02;49.34
62164;BME280;48149;51.132;7.178;2023-03-03T04:31:27;99245.41;;;11.51;50.56
62164;BME280;48149;51.132;7.178;2023-03-03T04:33:52;99245.03;;;11.02;49.29
62164;BME280;48149;51.132;7.178;2023-03-03T04:36:18;99249.06;;;12.34;47.30
62164;BME280;48149;51.132;7.178;2023-03-03T04:38:43;99252.00;;;10.55;52.82
62164;BME280;48149;51.132;7.178;2023-03-03T04:41:09;99248.91;;;9.98;54.25
62164;BME280;48149;51.132;7.178;2023-03-03T04:43:34;99248.22;;;10.84;52.67
62164;BME280;48149;51.132;7.178;2023-03-03T04:45:59;99250.38;;;10.54;53.10
62164;BME280;48149;51.132;7.178;2023-03-03T04:48:24;99252.91;;;10.28;51.09
62164;BME280;48149;51.132;7.178;2023-03-03T04:50:49;99252.41;;;10.65;52.71
62164;BME280;48149;51.132;7.178;2023-03-03T04:53:15;99245.72;;;10.02;52.36
62164;BME280;48149;51.132;7.178;2023-03-03T04:55:40;99244.00;;;10.83;52.37
62164;BME280;48149;51.132;7.178;2023-03-03T04:58:05;99250.69;;;11.18;50.47
62164;BME280;48149;51.132;7.178;2023-03-03T05:00:30;99251.22;;;10.61;56.08
62164;BME280;48149;51.132;7.178;2023-03-03T05:02:56;99259.09;;;10.14;54.17
62164;BME280;48149;51.132;7.178;2023-03-03T05:05:21;99253.00;;;9.73;57.76
62164;BME280;48149;51.132;7.178;2023-03-03T05:07:47;99252.91;;;10.28;54.75
62164;BME280;48149;51.132;7.178;2023-03-03T05:10:12;99248.38;;;10.56;53.52
62164;BME280;48149;51.132;7.178;2023-03-03T05:12:37;99249.63;;;10.74;54.15
62164;BME280;48149;51.132;7.178;2023-03-03T05:15:03;99257.25;;;12.06;47.99
62164;BME280;48149;51.132;7.178;2023-03-03T05:17:28;99263.03;;;12.28;47.25
62164;BME280;48149;51.132;7.178;2023-03-03T05:19:53;99258.53;;;11.45;48.53
62164;BME280;48149;51.132;7.178;2023-03-03T05:22:21;99262.38;;;11.16;50.72
62164;BME280;48149;51.132;7.178;2023-03-03T05:24:46;99261.78;;;10.27;50.32
62164;BME280;48149;51.132;7.178;2023-03-03T05:27:13;99266.00;;;11.02;51.77
62164;BME280;48149;51.132;7.178;2023-03-03T05:29:38;99270.34;;;10.55;53.38
62164;BME280;48149;51.132;7.178;2023-03-03T05:32:03;99269.25;;;10.02;54.01
62164;BME280;48149;51.132;7.178;2023-03-03T05:34:29;99268.22;;;11.05;52.14
62164;BME280;48149;51.132;7.178;2023-03-03T05:36:54;99264.16;;;10.89;52.72
62164;BME280;48149;51.132;7.178;2023-03-03T05:39:19;99255.19;;;10.44;52.38
62164;BME280;48149;51.132;7.178;2023-03-03T05:41:44;99261.53;;;9.53;54.79
62164;BME280;48149;51.132;7.178;2023-03-03T05:44:10;99268.56;;;10.22;53.76
62164;BME280;48149;51.132;7.178;2023-03-03T05:46:35;99266.47;;;10.51;52.64
62164;BME280;48149;51.132;7.178;2023-03-03T05:49:00;99263.25;;;10.49;52.21
62164;BME280;48149;51.132;7.178;2023-03-03T05:51:26;99274.00;;;10.74;51.77
62164;BME280;48149;51.132;7.178;2023-03-03T05:53:51;99275.97;;;10.65;52.82
62164;BME280;48149;51.132;7.178;2023-03-03T05:56:17;99267.91;;;10.13;52.28
62164;BME280;48149;51.132;7.178;2023-03-03T05:58:42;99270.97;;;10.70;51.27
62164;BME280;48149;51.132;7.178;2023-03-03T06:01:07;99260.53;;;11.10;49.33
62164;BME280;48149;51.132;7.178;2023-03-03T06:03:32;99261.81;;;10.06;51.39
62164;BME280;48149;51.132;7.178;2023-03-03T06:05:58;99267.63;;;11.29;51.01
62164;BME280;48149;51.132;7.178;2023-03-03T06:08:23;99267.03;;;11.27;49.79
62164;BME280;48149;51.132;7.178;2023-03-03T06:10:48;99275.06;;;11.52;49.66
62164;BME280;48149;51.132;7.178;2023-03-03T06:13:13;99274.66;;;11.35;49.55
62164;BME280;48149;51.132;7.178;2023-03-03T06:15:38;99280.50;;;11.11;49.57
62164;BME280;48149;51.132;7.178;2023-03-03T06:18:04;99282.09;;;9.97;53.12
62164;BME280;48149;51.132;7.178;2023-03-03T06:20:29;99293.66;;;10.50;53.68
62164;BME280;48149;51.132;7.178;2023-03-03T06:22:54;99303.75;;;10.60;53.72
62164;BME280;48149;51.132;7.178;2023-03-03T06:25:19;99308.13;;;11.20;50.71
62164;BME280;48149;51.132;7.178;2023-03-03T06:27:45;99308.00;;;9.86;53.78
62164;BME280;48149;51.132;7.178;2023-03-03T06:30:10;99306.66;;;10.24;53.66
62164;BME280;48149;51.132;7.178;2023-03-03T06:32:36;99306.75;;;10.50;52.77
62164;BME280;48149;51.132;7.178;2023-03-03T06:35:02;99310.69;;;9.99;54.01
62164;BME280;48149;51.132;7.178;2023-03-03T06:37:27;99308.41;;;10.64;52.79
62164;BME280;48149;51.132;7.178;2023-03-03T06:39:52;99315.13;;;10.33;53.19
62164;BME280;48149;51.132;7.178;2023-03-03T06:42:18;99316.66;;;10.61;52.90
62164;BME280;48149;51.132;7.178;2023-03-03T06:44:43;99326.75;;;10.64;52.03
62164;BME280;48149;51.132;7.178;2023-03-03T06:47:09;99323.63;;;12.20;49.34
62164;BME280;48149;51.132;7.178;2023-03-03T06:49:34;99323.84;;;12.12;47.75
62164;BME280;48149;51.132;7.178;2023-03-03T06:52:00;99326.28;;;11.35;47.03
62164;BME280;48149;51.132;7.178;2023-03-03T06:54:27;99330.75;;;11.34;48.78
62164;BME280;48149;51.132;7.178;2023-03-03T06:56:52;99327.94;;;10.14;50.59
62164;BME280;48149;51.132;7.178;2023-03-03T06:59:21;99332.53;;;12.12;48.72
62164;BME280;48149;51.132;7.178;2023-03-03T07:01:47;99340.41;;;11.27;48.52
62164;BME280;48149;51.132;7.178;2023-03-03T07:04:21;99337.72;;;11.01;50.01
62164;BME280;48149;51.132;7.178;2023-03-03T07:06:49;99346.47;;;11.41;49.53
62164;BME280;48149;51.132;7.178;2023-03-03T07:09:20;99342.41;;;11.38;50.82
62164;BME280;48149;51.132;7.178;2023-03-03T07:11:45;99350.06;;;11.20;47.75
62164;BME280;48149;51.132;7.178;2023-03-03T07:14:13;99348.94;;;10.82;47.94
62164;BME280;48149;51.132;7.178;2023-03-03T07:16:40;99351.66;;;11.08;50.77
62164;BME280;48149;51.132;7.178;2023-03-03T07:19:08;99351.59;;;10.88;51.23
62164;BME280;48149;51.132;7.178;2023-03-03T07:21:39;99357.25;;;10.92;49.04
62164;BME280;48149;51.132;7.178;2023-03-03T07:24:25;99355.78;;;11.96;48.13
62164;BME280;48149;51.132;7.178;2023-03-03T07:26:51;99365.44;;;12.08;48.14
62164;BME280;48149;51.132;7.178;2023-03-03T07:29:27;99355.56;;;12.74;46.26
62164;BME280;48149;51.132;7.178;2023-03-03T07:31:54;99359.63;;;10.80;45.95
62164;BME280;48149;51.132;7.178;2023-03-03T07:34:21;99350.13;;;11.59;49.16
62164;BME280;48149;51.132;7.178;2023-03-03T07:36:48;99361.00;;;12.02;46.41
62164;BME280;48149;51.132;7.178;2023-03-03T07:41:45;99360.22;;;11.62;48.24
62164;BME280;48149;51.132;7.178;2023-03-03T07:46:39;99366.25;;;12.15;46.41
62164;BME280;48149;51.132;7.178;2023-03-03T07:49:49;99368.78;;;11.10;45.73
62164;BME280;48149;51.132;7.178;2023-03-03T07:51:55;99371.50;;;11.56;48.08
62164;BME280;48149;51.132;7.178;2023-03-03T07:54:37;99370.25;;;12.38;45.56
62164;BME280;48149;51.132;7.178;2023-03-03T07:59:32;99375.50;;;12.24;44.90
62164;BME280;48149;51.132;7.178;2023-03-03T08:01:59;99380.19;;;9.59;48.33
62164;BME280;48149;51.132;7.178;2023-03-03T08:07:02;99389.16;;;11.08;52.93
62164;BME280;48149;51.132;7.178;2023-03-03T08:09:35;99392.44;;;12.99;47.31
62164;BME280;48149;51.132;7.178;2023-03-03T08:14:45;99396.75;;;12.10;46.63
62164;BME280;48149;51.132;7.178;2023-03-03T08:17:16;99397.34;;;11.92;46.07
62164;BME280;48149;51.132;7.178;2023-03-03T08:19:44;99404.75;;;12.54;45.19
62164;BME280;48149;51.132;7.178;2023-03-03T08:22:14;99411.03;;;12.34;45.19
62164;BME280;48149;51.132;7.178;2023-03-03T08:24:40;99406.69;;;12.78;46.11
62164;BME280;48149;51.132;7.178;2023-03-03T08:27:05;99410.25;;;12.97;45.72
62164;BME280;48149;51.132;7.178;2023-03-03T08:29:30;99417.91;;;12.99;45.19
62164;BME280;48149;51.132;7.178;2023-03-03T08:31:56;99421.28;;;13.19;44.42
62164;BME280;48149;51.132;7.178;2023-03-03T08:34:21;99418.84;;;12.73;45.35
62164;BME280;48149;51.132;7.178;2023-03-03T08:36:46;99418.63;;;14.31;42.14
62164;BME280;48149;51.132;7.178;2023-03-03T08:39:13;99421.56;;;13.73;43.10
62164;BME280;48149;51.132;7.178;2023-03-03T08:41:38;99417.34;;;12.90;44.83
62164;BME280;48149;51.132;7.178;2023-03-03T08:44:07;99421.31;;;13.06;43.96
62164;BME280;48149;51.132;7.178;2023-03-03T08:46:33;99429.81;;;14.33;43.56
62164;BME280;48149;51.132;7.178;2023-03-03T08:48:58;99431.13;;;14.17;41.78
62164;BME280;48149;51.132;7.178;2023-03-03T08:51:23;99429.06;;;11.91;43.24
62164;BME280;48149;51.132;7.178;2023-03-03T08:53:50;99429.03;;;13.45;43.98
62164;BME280;48149;51.132;7.178;2023-03-03T08:56:15;99426.88;;;12.78;44.53
62164;BME280;48149;51.132;7.178;2023-03-03T08:58:40;99434.06;;;14.03;43.64
62164;BME280;48149;51.132;7.178;2023-03-03T09:01:12;99431.56;;;13.27;43.83
62164;BME280;48149;51.132;7.178;2023-03-03T09:03:37;99436.66;;;13.84;43.32
62164;BME280;48149;51.132;7.178;2023-03-03T09:06:03;99444.59;;;13.47;42.56
62164;BME280;48149;51.132;7.178;2023-03-03T09:08:28;99435.38;;;13.31;43.32
62164;BME280;48149;51.132;7.178;2023-03-03T09:10:53;99440.25;;;13.27;43.31
62164;BME280;48149;51.132;7.178;2023-03-03T09:13:19;99440.34;;;13.01;44.61
62164;BME280;48149;51.132;7.178;2023-03-03T09:15:44;99438.09;;;13.49;42.22
62164;BME280;48149;51.132;7.178;2023-03-03T09:20:48;99442.34;;;13.06;44.37
62164;BME280;48149;51.132;7.178;2023-03-03T09:23:24;99450.44;;;13.86;42.73
62164;BME280;48149;51.132;7.178;2023-03-03T09:25:51;99463.56;;;12.27;45.45
62164;BME280;48149;51.132;7.178;2023-03-03T09:28:27;99464.34;;;13.62;44.09
62164;BME280;48149;51.132;7.178;2023-03-03T09:30:53;99467.16;;;12.39;44.74
62164;BME280;48149;51.132;7.178;2023-03-03T09:35:44;99474.28;;;12.25;45.28
62164;BME280;48149;51.132;7.178;2023-03-03T09:40:45;99482.59;;;13.57;42.87
62164;BME280;48149;51.132;7.178;2023-03-03T09:45:56;99482.44;;;12.95;42.87
62164;BME280;48149;51.132;7.178;2023-03-03T09:58:45;99482.69;;;14.74;42.56
62164;BME280;48149;51.132;7.178;2023-03-03T10:04:08;99488.41;;;14.89;40.40
62164;BME280;48149;51.132;7.178;2023-03-03T10:06:48;99493.78;;;14.40;40.93
62164;BME280;48149;51.132;7.178;2023-03-03T10:09:25;99489.00;;;11.94;47.14
62164;BME280;48149;51.132;7.178;2023-03-03T10:12:04;99493.41;;;12.65;45.14
62164;BME280;48149;51.132;7.178;2023-03-03T10:14:38;99485.94;;;11.23;49.19
62164;BME280;48149;51.132;7.178;2023-03-03T10:19:39;99491.16;;;13.77;44.34
62164;BME280;48149;51.132;7.178;2023-03-03T10:22:26;99497.03;;;14.60;42.81
62164;BME280;48149;51.132;7.178;2023-03-03T10:25:03;99485.09;;;14.08;44.31
62164;BME280;48149;51.132;7.178;2023-03-03T10:35:18;99480.66;;;12.75;44.45
62164;BME280;48149;51.132;7.178;2023-03-03T10:40:21;99485.53;;;14.30;43.06
62164;BME280;48149;51.132;7.178;2023-03-03T10:51:17;99501.88;;;14.81;41.33
62164;BME280;48149;51.132;7.178;2023-03-03T10:56:33;99507.16;;;14.07;41.99
62164;BME280;48149;51.132;7.178;2023-03-03T11:04:29;99503.31;;;16.10;38.64
62164;BME280;48149;51.132;7.178;2023-03-03T11:09:30;99503.94;;;14.79;40.49
62164;BME280;48149;51.132;7.178;2023-03-03T11:12:08;99502.19;;;16.40;38.27
62164;BME280;48149;51.132;7.178;2023-03-03T11:14:50;99515.69;;;14.34;40.52
62164;BME280;48149;51.132;7.178;2023-03-03T11:22:53;99495.38;;;14.41;41.55
62164;BME280;48149;51.132;7.178;2023-03-03T11:25:24;99495.56;;;15.01;38.59
62164;BME280;48149;51.132;7.178;2023-03-03T11:35:35;99484.50;;;13.75;42.35
62164;BME280;48149;51.132;7.178;2023-03-03T11:47:59;99480.97;;;13.56;44.81
62164;BME280;48149;51.132;7.178;2023-03-03T11:50:30;99482.66;;;14.31;43.26
62164;BME280;48149;51.132;7.178;2023-03-03T11:55:43;99474.44;;;15.96;38.77
62164;BME280;48149;51.132;7.178;2023-03-03T12:03:30;99473.66;;;14.21;42.25
62164;BME280;48149;51.132;7.178;2023-03-03T12:13:39;99455.38;;;14.01;43.09
62164;BME280;48149;51.132;7.178;2023-03-03T12:21:38;99453.34;;;15.37;39.02
62164;BME280;48149;51.132;7.178;2023-03-03T12:42:00;99448.41;;;16.23;36.62
62164;BME280;48149;51.132;7.178;2023-03-03T12:47:14;99444.53;;;19.60;34.34
62164;BME280;48149;51.132;7.178;2023-03-03T12:52:20;99431.06;;;19.40;32.70
62164;BME280;48149;51.132;7.178;2023-03-03T12:55:36;99443.53;;;18.53;33.34
62164;BME280;48149;51.132;7.178;2023-03-03T12:57:34;99447.66;;;18.49;34.30
62164;BME280;48149;51.132;7.178;2023-03-03T13:07:42;99440.00;;;18.31;33.25
62164;BME280;48149;51.132;7.178;2023-03-03T13:10:23;99435.25;;;20.27;32.19
62164;BME280;48149;51.132;7.178;2023-03-03T13:15:24;99439.28;;;21.53;29.54
62164;BME280;48149;51.132;7.178;2023-03-03T13:20:29;99438.47;;;18.95;31.06
62164;BME280;48149;51.132;7.178;2023-03-03T13:23:01;99439.91;;;19.78;31.60
62164;BME280;48149;51.132;7.178;2023-03-03T13:27:59;99438.00;;;25.46;24.37
62164;BME280;48149;51.132;7.178;2023-03-03T13:30:26;99432.16;;;25.02;25.24
62164;BME280;48149;51.132;7.178;2023-03-03T13:33:08;99435.94;;;24.24;26.29
62164;BME280;48149;51.132;7.178;2023-03-03T13:35:45;99437.34;;;23.44;25.64
62164;BME280;48149;51.132;7.178;2023-03-03T13:38:24;99429.78;;;23.02;26.95
62164;BME280;48149;51.132;7.178;2023-03-03T13:41:03;99433.19;;;22.28;28.38
62164;BME280;48149;51.132;7.178;2023-03-03T13:43:35;99429.66;;;23.27;27.85
62164;BME280;48149;51.132;7.178;2023-03-03T13:51:21;99425.19;;;26.26;22.67
62164;BME280;48149;51.132;7.178;2023-03-03T13:59:23;99428.34;;;26.88;22.04
62164;BME280;48149;51.132;7.178;2023-03-03T14:06:39;99418.09;;;30.77;19.94
62164;BME280;48149;51.132;7.178;2023-03-03T14:14:32;99416.16;;;26.36;23.05
62164;BME280;48149;51.132;7.178;2023-03-03T14:19:43;99420.56;;;22.69;25.74
62164;BME280;48149;51.132;7.178;2023-03-03T14:24:55;99406.31;;;25.29;23.71
62164;BME280;48149;51.132;7.178;2023-03-03T14:27:24;99397.06;;;22.81;26.49
62164;BME280;48149;51.132;7.178;2023-03-03T14:29:50;99403.00;;;22.48;26.48
62164;BME280;48149;51.132;7.178;2023-03-03T14:32:25;99393.47;;;23.84;26.96
62164;BME280;48149;51.132;7.178;2023-03-03T14:35:00;99393.19;;;27.34;23.39
62164;BME280;48149;51.132;7.178;2023-03-03T14:37:43;99383.72;;;27.36;23.34
62164;BME280;48149;51.132;7.178;2023-03-03T14:40:15;99382.19;;;23.92;26.39
62164;BME280;48149;51.132;7.178;2023-03-03T14:42:47;99384.16;;;24.10;25.86
62164;BME280;48149;51.132;7.178;2023-03-03T14:45:32;99385.44;;;24.65;24.61
62164;BME280;48149;51.132;7.178;2023-03-03T14:47:58;99382.41;;;28.23;22.12
62164;BME280;48149;51.132;7.178;2023-03-03T14:53:09;99377.06;;;23.62;24.60
62164;BME280;48149;51.132;7.178;2023-03-03T14:55:36;99382.59;;;27.15;24.29
62164;BME280;48149;51.132;7.178;2023-03-03T14:58:02;99383.16;;;24.01;24.32
62164;BME280;48149;51.132;7.178;2023-03-03T15:05:29;99392.94;;;26.13;23.76
62164;BME280;48149;51.132;7.178;2023-03-03T15:12:57;99385.84;;;25.89;24.00
62164;BME280;48149;51.132;7.178;2023-03-03T15:15:23;99376.97;;;22.05;26.66
62164;BME280;48149;51.132;7.178;2023-03-03T15:20:52;99370.09;;;22.78;26.87
62164;BME280;48149;51.132;7.178;2023-03-03T15:26:01;99371.09;;;21.77;26.81
62164;BME280;48149;51.132;7.178;2023-03-03T15:28:33;99364.69;;;21.73;27.84
62164;BME280;48149;51.132;7.178;2023-03-03T15:38:59;99360.22;;;23.95;25.90
62164;BME280;48149;51.132;7.178;2023-03-03T15:43:58;99368.97;;;26.03;24.43
62164;BME280;48149;51.132;7.178;2023-03-03T15:48:56;99363.53;;;25.24;23.60
62164;BME280;48149;51.132;7.178;2023-03-03T16:03:59;99366.56;;;25.55;22.69
62164;BME280;48149;51.132;7.178;2023-03-03T16:09:10;99362.06;;;25.51;23.79
62164;BME280;48149;51.132;7.178;2023-03-03T16:14:46;99366.91;;;25.67;24.19
62164;BME280;48149;51.132;7.178;2023-03-03T16:17:21;99363.94;;;20.23;28.04
62164;BME280;48149;51.132;7.178;2023-03-03T16:32:39;99370.28;;;20.64;28.47
62164;BME280;48149;51.132;7.178;2023-03-03T16:37:38;99377.75;;;21.70;27.54
62164;BME280;48149;51.132;7.178;2023-03-03T16:42:51;99378.50;;;21.25;28.62
62164;BME280;48149;51.132;7.178;2023-03-03T16:55:29;99400.81;;;19.19;30.91
62164;BME280;48149;51.132;7.178;2023-03-03T17:00:39;99403.63;;;18.48;32.07
62164;BME280;48149;51.132;7.178;2023-03-03T17:03:12;99409.47;;;17.33;33.75
62164;BME280;48149;51.132;7.178;2023-03-03T17:08:15;99410.50;;;17.04;34.10
62164;BME280;48149;51.132;7.178;2023-03-03T17:11:01;99409.41;;;17.45;33.93
62164;BME280;48149;51.132;7.178;2023-03-03T17:16:29;99411.31;;;15.24;36.92
62164;BME280;48149;51.132;7.178;2023-03-03T17:24:01;99418.63;;;16.05;36.78
62164;BME280;48149;51.132;7.178;2023-03-03T17:31:43;99421.38;;;15.86;36.52
62164;BME280;48149;51.132;7.178;2023-03-03T17:42:01;99429.56;;;15.07;37.72
62164;BME280;48149;51.132;7.178;2023-03-03T17:47:15;99437.31;;;14.90;38.14
62164;BME280;48149;51.132;7.178;2023-03-03T17:52:26;99445.31;;;14.41;38.75
62164;BME280;48149;51.132;7.178;2023-03-03T18:00:52;99453.28;;;14.34;39.91
62164;BME280;48149;51.132;7.178;2023-03-03T18:23:36;99454.84;;;14.78;38.32
62164;BME280;48149;51.132;7.178;2023-03-03T18:26:27;99452.91;;;14.74;37.60